sensor_id;sensor_type;location;lat;lon;timestamp;P1;durP1;ratioP1;P2;durP2;ratioP2
8104;SDS011;4095;48.942;9.104;2022-07-23T00:01:00;5.50;;;5.00;;
8104;SDS011;4095;48.942;9.104;2022-07-23T00:03:26;5.15;;;4.65;;
8104;SDS011;4095;48.942;9.104;2022-07-23T00:05:51;5.75;;;5.25;;
8104;SDS011;4095;48.942;9.104;2022-07-23T00:08:17;5.78;;;4.63;;
8104;SDS011;4095;48.942;9.104;2022-07-23T00:10:43;5.10;;;4.60;;
8104;SDS011;4095;48.942;9.104;2022-07-23T00:13:08;5.25;;;4.75;;
8104;SDS011;4095;48.942;9.104;2022-07-23T00:15:34;5.75;;;4.95;;
8104;SDS011;4095;48.942;9.104;2022-07-23T00:17:59;5.10;;;4.70;;
8104;SDS011;4095;48.942;9.104;2022-07-23T00:20:25;5.15;;;4.43;;
8104;SDS011;4095;48.942;9.104;2022-07-23T00:22:52;5.32;;;4.82;;
8104;SDS011;4095;48.942;9.104;2022-07-23T00:25:20;4.60;;;4.20;;
8104;SDS011;4095;48.942;9.104;2022-07-23T00:27:47;5.38;;;4.22;;
8104;SDS011;4095;48.942;9.104;2022-07-23T00:30:13;5.30;;;4.80;;
8104;SDS011;4095;48.942;9.104;2022-07-23T00:32:46;4.63;;;4.22;;
8104;SDS011;4095;48.942;9.104;2022-07-23T00:35:21;6.22;;;4.65;;
8104;SDS011;4095;48.942;9.104;2022-07-23T00:37:47;5.75;;;4.38;;
8104;SDS011;4095;48.942;9.104;2022-07-23T00:40:12;4.60;;;4.20;;
8104;SDS011;4095;48.942;9.104;2022-07-23T00:42:38;5.10;;;4.60;;
8104;SDS011;4095;48.942;9.104;2022-07-23T00:45:05;4.93;;;4.53;;
8104;SDS011;4095;48.942;9.104;2022-07-23T00:47:31;5.10;;;4.60;;
8104;SDS011;4095;48.942;9.104;2022-07-23T00:49:57;5.00;;;4.53;;
8104;SDS011;4095;48.942;9.104;2022-07-23T00:52:23;5.10;;;4.60;;
8104;SDS011;4095;48.942;9.104;2022-07-23T00:54:49;5.35;;;4.85;;
8104;SDS011;4095;48.942;9.104;2022-07-23T00:57:15;4.45;;;4.15;;
8104;SDS011;4095;48.942;9.104;2022-07-23T00:59:41;5.10;;;4.60;;
8104;SDS011;4095;48.942;9.104;2022-07-23T01:02:07;5.35;;;4.32;;
8104;SDS011;4095;48.942;9.104;2022-07-23T01:04:32;6.05;;;4.20;;
8104;SDS011;4095;48.942;9.104;2022-07-23T01:06:58;5.78;;;4.43;;
8104;SDS011;4095;48.942;9.104;2022-07-23T01:09:24;4.80;;;4.40;;
8104;SDS011;4095;48.942;9.104;2022-07-23T01:11:51;4.80;;;4.40;;
8104;SDS011;4095;48.942;9.104;2022-07-23T01:14:18;4.80;;;4.30;;
8104;SDS011;4095;48.942;9.104;2022-07-23T01:16:44;5.32;;;4.50;;
8104;SDS011;4095;48.942;9.104;2022-07-23T01:19:11;4.50;;;4.20;;
8104;SDS011;4095;48.942;9.104;2022-07-23T01:21:38;4.90;;;4.43;;
8104;SDS011;4095;48.942;9.104;2022-07-23T01:24:05;4.78;;;4.38;;
8104;SDS011;4095;48.942;9.104;2022-07-23T01:26:31;4.82;;;4.35;;
8104;SDS011;4095;48.942;9.104;2022-07-23T01:28:57;4.93;;;4.43;;
8104;SDS011;4095;48.942;9.104;2022-07-23T01:31:23;5.25;;;4.75;;
8104;SDS011;4095;48.942;9.104;2022-07-23T01:33:49;4.93;;;4.53;;
8104;SDS011;4095;48.942;9.104;2022-07-23T01:36:14;4.85;;;4.45;;
8104;SDS011;4095;48.942;9.104;2022-07-23T01:38:40;5.07;;;4.57;;
8104;SDS011;4095;48.942;9.104;2022-07-23T01:41:05;4.65;;;4.25;;
8104;SDS011;4095;48.942;9.104;2022-07-23T01:43:31;4.60;;;4.20;;
8104;SDS011;4095;48.942;9.104;2022-07-23T01:45:57;5.32;;;4.82;;
8104;SDS011;4095;48.942;9.104;2022-07-23T01:48:22;5.00;;;4.60;;
8104;SDS011;4095;48.942;9.104;2022-07-23T01:50:48;5.30;;;4.32;;
8104;SDS011;4095;48.942;9.104;2022-07-23T01:53:14;5.10;;;4.53;;
8104;SDS011;4095;48.942;9.104;2022-07-23T01:55:40;4.82;;;4.40;;
8104;SDS011;4095;48.942;9.104;2022-07-23T01:58:06;4.75;;;4.35;;
8104;SDS011;4095;48.942;9.104;2022-07-23T02:00:32;4.80;;;4.28;;
8104;SDS011;4095;48.942;9.104;2022-07-23T02:02:57;5.13;;;4.70;;
8104;SDS011;4095;48.942;9.104;2022-07-23T02:05:24;4.75;;;4.35;;
8104;SDS011;4095;48.942;9.104;2022-07-23T02:07:50;4.72;;;4.32;;
8104;SDS011;4095;48.942;9.104;2022-07-23T02:10:16;5.07;;;4.63;;
8104;SDS011;4095;48.942;9.104;2022-07-23T02:12:41;4.85;;;4.45;;
8104;SDS011;4095;48.942;9.104;2022-07-23T02:15:07;5.18;;;4.78;;
8104;SDS011;4095;48.942;9.104;2022-07-23T02:17:33;5.05;;;4.55;;
8104;SDS011;4095;48.942;9.104;2022-07-23T02:19:58;6.30;;;4.60;;
8104;SDS011;4095;48.942;9.104;2022-07-23T02:22:24;5.30;;;4.80;;
8104;SDS011;4095;48.942;9.104;2022-07-23T02:24:50;4.70;;;4.20;;
8104;SDS011;4095;48.942;9.104;2022-07-23T02:27:15;4.90;;;4.50;;
8104;SDS011;4095;48.942;9.104;2022-07-23T02:29:41;5.43;;;4.60;;
8104;SDS011;4095;48.942;9.104;2022-07-23T02:32:07;6.20;;;5.03;;
8104;SDS011;4095;48.942;9.104;2022-07-23T02:34:32;5.45;;;4.82;;
8104;SDS011;4095;48.942;9.104;2022-07-23T02:36:58;4.90;;;4.45;;
8104;SDS011;4095;48.942;9.104;2022-07-23T02:39:23;5.57;;;5.13;;
8104;SDS011;4095;48.942;9.104;2022-07-23T02:41:49;5.40;;;4.90;;
8104;SDS011;4095;48.942;9.104;2022-07-23T02:44:14;5.65;;;5.15;;
8104;SDS011;4095;48.942;9.104;2022-07-23T02:46:40;5.80;;;4.70;;
8104;SDS011;4095;48.942;9.104;2022-07-23T02:49:06;5.85;;;5.05;;
8104;SDS011;4095;48.942;9.104;2022-07-23T02:51:31;5.55;;;4.70;;
8104;SDS011;4095;48.942;9.104;2022-07-23T02:53:57;5.07;;;4.57;;
8104;SDS011;4095;48.942;9.104;2022-07-23T02:56:22;5.53;;;5.03;;
8104;SDS011;4095;48.942;9.104;2022-07-23T02:58:48;5.43;;;4.93;;
8104;SDS011;4095;48.942;9.104;2022-07-23T03:01:14;4.97;;;4.57;;
8104;SDS011;4095;48.942;9.104;2022-07-23T03:03:39;4.95;;;4.55;;
8104;SDS011;4095;48.942;9.104;2022-07-23T03:06:05;5.50;;;4.90;;
8104;SDS011;4095;48.942;9.104;2022-07-23T03:08:31;5.00;;;4.60;;
8104;SDS011;4095;48.942;9.104;2022-07-23T03:10:56;6.47;;;5.03;;
8104;SDS011;4095;48.942;9.104;2022-07-23T03:13:22;5.57;;;5.05;;
8104;SDS011;4095;48.942;9.104;2022-07-23T03:15:48;5.25;;;4.75;;
8104;SDS011;4095;48.942;9.104;2022-07-23T03:18:13;5.40;;;4.70;;
8104;SDS011;4095;48.942;9.104;2022-07-23T03:20:39;5.68;;;5.05;;
8104;SDS011;4095;48.942;9.104;2022-07-23T03:23:05;4.95;;;4.55;;
8104;SDS011;4095;48.942;9.104;2022-07-23T03:25:30;5.38;;;4.88;;
8104;SDS011;4095;48.942;9.104;2022-07-23T03:27:56;5.60;;;4.82;;
8104;SDS011;4095;48.942;9.104;2022-07-23T03:30:21;4.70;;;4.30;;
8104;SDS011;4095;48.942;9.104;2022-07-23T03:32:47;5.20;;;4.70;;
8104;SDS011;4095;48.942;9.104;2022-07-23T03:35:13;5.18;;;4.68;;
8104;SDS011;4095;48.942;9.104;2022-07-23T03:37:38;5.32;;;4.80;;
8104;SDS011;4095;48.942;9.104;2022-07-23T03:40:04;6.10;;;4.70;;
8104;SDS011;4095;48.942;9.104;2022-07-23T03:42:31;5.25;;;4.75;;
8104;SDS011;4095;48.942;9.104;2022-07-23T03:44:56;5.70;;;5.20;;
8104;SDS011;4095;48.942;9.104;2022-07-23T03:47:22;6.15;;;5.55;;
8104;SDS011;4095;48.942;9.104;2022-07-23T03:49:49;5.97;;;5.40;;
8104;SDS011;4095;48.942;9.104;2022-07-23T03:52:14;5.53;;;4.80;;
8104;SDS011;4095;48.942;9.104;2022-07-23T03:54:40;5.30;;;4.75;;
8104;SDS011;4095;48.942;9.104;2022-07-23T03:57:06;6.05;;;5.05;;
8104;SDS011;4095;48.942;9.104;2022-07-23T03:59:31;4.95;;;4.55;;
8104;SDS011;4095;48.942;9.104;2022-07-23T04:01:57;5.88;;;5.32;;
8104;SDS011;4095;48.942;9.104;2022-07-23T04:04:23;5.53;;;5.03;;
8104;SDS011;4095;48.942;9.104;2022-07-23T04:06:48;6.85;;;5.38;;
8104;SDS011;4095;48.942;9.104;2022-07-23T04:09:14;5.55;;;4.90;;
8104;SDS011;4095;48.942;9.104;2022-07-23T04:11:40;5.88;;;5.28;;
8104;SDS011;4095;48.942;9.104;2022-07-23T04:14:05;5.68;;;4.82;;
8104;SDS011;4095;48.942;9.104;2022-07-23T04:16:31;5.63;;;5.03;;
8104;SDS011;4095;48.942;9.104;2022-07-23T04:18:57;5.75;;;5.13;;
8104;SDS011;4095;48.942;9.104;2022-07-23T04:21:23;5.60;;;5.10;;
8104;SDS011;4095;48.942;9.104;2022-07-23T04:23:49;5.55;;;4.85;;
8104;SDS011;4095;48.942;9.104;2022-07-23T04:26:15;7.05;;;5.25;;
8104;SDS011;4095;48.942;9.104;2022-07-23T04:28:40;5.80;;;4.90;;
8104;SDS011;4095;48.942;9.104;2022-07-23T04:31:06;5.80;;;5.22;;
8104;SDS011;4095;48.942;9.104;2022-07-23T04:33:32;5.82;;;5.30;;
8104;SDS011;4095;48.942;9.104;2022-07-23T04:35:58;6.32;;;5.28;;
8104;SDS011;4095;48.942;9.104;2022-07-23T04:38:23;5.60;;;5.05;;
8104;SDS011;4095;48.942;9.104;2022-07-23T04:40:49;5.72;;;5.22;;
8104;SDS011;4095;48.942;9.104;2022-07-23T04:43:15;5.60;;;5.10;;
8104;SDS011;4095;48.942;9.104;2022-07-23T04:45:40;6.28;;;5.15;;
8104;SDS011;4095;48.942;9.104;2022-07-23T04:48:06;6.38;;;5.60;;
8104;SDS011;4095;48.942;9.104;2022-07-23T04:50:31;6.68;;;5.18;;
8104;SDS011;4095;48.942;9.104;2022-07-23T04:52:57;6.38;;;5.75;;
8104;SDS011;4095;48.942;9.104;2022-07-23T04:55:23;5.85;;;5.35;;
8104;SDS011;4095;48.942;9.104;2022-07-23T04:57:48;6.15;;;5.57;;
8104;SDS011;4095;48.942;9.104;2022-07-23T05:00:14;6.13;;;5.63;;
8104;SDS011;4095;48.942;9.104;2022-07-23T05:02:40;5.90;;;5.40;;
8104;SDS011;4095;48.942;9.104;2022-07-23T05:05:06;6.63;;;5.57;;
8104;SDS011;4095;48.942;9.104;2022-07-23T05:07:32;5.50;;;5.10;;
8104;SDS011;4095;48.942;9.104;2022-07-23T05:09:57;6.00;;;5.38;;
8104;SDS011;4095;48.942;9.104;2022-07-23T05:12:23;5.78;;;5.28;;
8104;SDS011;4095;48.942;9.104;2022-07-23T05:14:49;5.88;;;5.25;;
8104;SDS011;4095;48.942;9.104;2022-07-23T05:17:14;6.25;;;5.57;;
8104;SDS011;4095;48.942;9.104;2022-07-23T05:19:40;6.13;;;5.63;;
8104;SDS011;4095;48.942;9.104;2022-07-23T05:22:05;6.30;;;5.70;;
8104;SDS011;4095;48.942;9.104;2022-07-23T05:24:31;5.70;;;5.20;;
8104;SDS011;4095;48.942;9.104;2022-07-23T05:26:57;6.05;;;5.55;;
8104;SDS011;4095;48.942;9.104;2022-07-23T05:29:22;5.20;;;4.70;;
8104;SDS011;4095;48.942;9.104;2022-07-23T05:31:48;17.40;;;9.00;;
8104;SDS011;4095;48.942;9.104;2022-07-23T05:34:13;6.35;;;5.75;;
8104;SDS011;4095;48.942;9.104;2022-07-23T05:36:39;6.68;;;6.07;;
8104;SDS011;4095;48.942;9.104;2022-07-23T05:39:05;7.30;;;6.07;;
8104;SDS011;4095;48.942;9.104;2022-07-23T05:41:30;8.10;;;7.05;;
8104;SDS011;4095;48.942;9.104;2022-07-23T05:43:56;6.60;;;6.00;;
8104;SDS011;4095;48.942;9.104;2022-07-23T05:46:21;6.95;;;6.35;;
8104;SDS011;4095;48.942;9.104;2022-07-23T05:48:47;7.88;;;6.30;;
8104;SDS011;4095;48.942;9.104;2022-07-23T05:51:24;7.90;;;7.20;;
8104;SDS011;4095;48.942;9.104;2022-07-23T05:53:50;7.32;;;6.57;;
8104;SDS011;4095;48.942;9.104;2022-07-23T05:56:16;7.07;;;6.47;;
8104;SDS011;4095;48.942;9.104;2022-07-23T05:58:43;7.28;;;6.68;;
8104;SDS011;4095;48.942;9.104;2022-07-23T06:01:09;6.57;;;6.05;;
8104;SDS011;4095;48.942;9.104;2022-07-23T06:03:36;6.50;;;5.88;;
8104;SDS011;4095;48.942;9.104;2022-07-23T06:06:03;6.97;;;6.32;;
8104;SDS011;4095;48.942;9.104;2022-07-23T06:08:29;7.00;;;6.40;;
8104;SDS011;4095;48.942;9.104;2022-07-23T06:10:55;7.30;;;6.65;;
8104;SDS011;4095;48.942;9.104;2022-07-23T06:13:20;7.40;;;6.70;;
8104;SDS011;4095;48.942;9.104;2022-07-23T06:15:46;7.70;;;6.88;;
8104;SDS011;4095;48.942;9.104;2022-07-23T06:18:12;8.23;;;6.93;;
8104;SDS011;4095;48.942;9.104;2022-07-23T06:20:37;7.13;;;6.43;;
8104;SDS011;4095;48.942;9.104;2022-07-23T06:23:03;7.57;;;6.88;;
8104;SDS011;4095;48.942;9.104;2022-07-23T06:25:29;6.63;;;6.03;;
8104;SDS011;4095;48.942;9.104;2022-07-23T06:27:55;6.32;;;5.75;;
8104;SDS011;4095;48.942;9.104;2022-07-23T06:30:21;6.65;;;5.97;;
8104;SDS011;4095;48.942;9.104;2022-07-23T06:32:47;7.72;;;6.43;;
8104;SDS011;4095;48.942;9.104;2022-07-23T06:35:14;6.63;;;6.03;;
8104;SDS011;4095;48.942;9.104;2022-07-23T06:37:40;6.57;;;5.95;;
8104;SDS011;4095;48.942;9.104;2022-07-23T06:40:05;6.30;;;5.70;;
8104;SDS011;4095;48.942;9.104;2022-07-23T06:42:32;6.35;;;5.78;;
8104;SDS011;4095;48.942;9.104;2022-07-23T06:44:57;7.55;;;6.03;;
8104;SDS011;4095;48.942;9.104;2022-07-23T06:47:23;7.57;;;6.88;;
8104;SDS011;4095;48.942;9.104;2022-07-23T06:49:49;6.85;;;6.25;;
8104;SDS011;4095;48.942;9.104;2022-07-23T06:52:14;6.88;;;5.50;;
8104;SDS011;4095;48.942;9.104;2022-07-23T06:54:40;6.60;;;5.90;;
8104;SDS011;4095;48.942;9.104;2022-07-23T06:57:05;6.60;;;5.60;;
8104;SDS011;4095;48.942;9.104;2022-07-23T06:59:31;7.53;;;6.07;;
8104;SDS011;4095;48.942;9.104;2022-07-23T07:01:58;6.63;;;6.03;;
8104;SDS011;4095;48.942;9.104;2022-07-23T07:04:23;8.27;;;6.82;;
8104;SDS011;4095;48.942;9.104;2022-07-23T07:06:49;7.82;;;6.35;;
8104;SDS011;4095;48.942;9.104;2022-07-23T07:09:15;7.40;;;6.80;;
8104;SDS011;4095;48.942;9.104;2022-07-23T07:11:41;8.68;;;7.35;;
8104;SDS011;4095;48.942;9.104;2022-07-23T07:14:06;8.48;;;7.22;;
8104;SDS011;4095;48.942;9.104;2022-07-23T07:16:32;8.13;;;7.15;;
8104;SDS011;4095;48.942;9.104;2022-07-23T07:18:57;8.43;;;7.60;;
8104;SDS011;4095;48.942;9.104;2022-07-23T07:21:23;8.57;;;7.78;;
8104;SDS011;4095;48.942;9.104;2022-07-23T07:23:49;8.67;;;7.77;;
8104;SDS011;4095;48.942;9.104;2022-07-23T07:26:14;8.30;;;7.60;;
8104;SDS011;4095;48.942;9.104;2022-07-23T07:28:40;9.40;;;8.52;;
8104;SDS011;4095;48.942;9.104;2022-07-23T07:31:06;9.30;;;8.40;;
8104;SDS011;4095;48.942;9.104;2022-07-23T07:33:32;8.65;;;7.72;;
8104;SDS011;4095;48.942;9.104;2022-07-23T07:35:57;9.15;;;8.25;;
8104;SDS011;4095;48.942;9.104;2022-07-23T07:38:23;9.40;;;8.40;;
8104;SDS011;4095;48.942;9.104;2022-07-23T07:40:49;9.35;;;8.45;;
8104;SDS011;4095;48.942;9.104;2022-07-23T07:43:15;9.20;;;8.40;;
8104;SDS011;4095;48.942;9.104;2022-07-23T07:45:40;9.52;;;8.63;;
8104;SDS011;4095;48.942;9.104;2022-07-23T07:48:06;9.50;;;8.50;;
8104;SDS011;4095;48.942;9.104;2022-07-23T07:50:32;9.73;;;8.82;;
8104;SDS011;4095;48.942;9.104;2022-07-23T07:52:57;10.52;;;9.48;;
8104;SDS011;4095;48.942;9.104;2022-07-23T07:55:23;10.70;;;9.13;;
8104;SDS011;4095;48.942;9.104;2022-07-23T07:57:49;10.20;;;9.30;;
8104;SDS011;4095;48.942;9.104;2022-07-23T08:00:14;9.90;;;8.90;;
8104;SDS011;4095;48.942;9.104;2022-07-23T08:05:06;9.40;;;8.50;;
8104;SDS011;4095;48.942;9.104;2022-07-23T08:07:32;9.50;;;8.63;;
8104;SDS011;4095;48.942;9.104;2022-07-23T08:09:58;10.02;;;9.07;;
8104;SDS011;4095;48.942;9.104;2022-07-23T08:12:24;9.57;;;8.57;;
8104;SDS011;4095;48.942;9.104;2022-07-23T08:14:49;9.70;;;8.80;;
8104;SDS011;4095;48.942;9.104;2022-07-23T08:17:15;9.73;;;8.85;;
8104;SDS011;4095;48.942;9.104;2022-07-23T08:19:40;9.88;;;8.98;;
8104;SDS011;4095;48.942;9.104;2022-07-23T08:22:06;9.95;;;9.05;;
8104;SDS011;4095;48.942;9.104;2022-07-23T08:24:31;9.50;;;8.70;;
8104;SDS011;4095;48.942;9.104;2022-07-23T08:26:57;9.85;;;8.88;;
8104;SDS011;4095;48.942;9.104;2022-07-23T08:29:23;9.75;;;8.75;;
8104;SDS011;4095;48.942;9.104;2022-07-23T08:31:48;9.98;;;8.95;;
8104;SDS011;4095;48.942;9.104;2022-07-23T08:34:14;9.65;;;8.75;;
8104;SDS011;4095;48.942;9.104;2022-07-23T08:36:39;9.30;;;8.50;;
8104;SDS011;4095;48.942;9.104;2022-07-23T08:39:05;9.50;;;8.57;;
8104;SDS011;4095;48.942;9.104;2022-07-23T08:41:31;9.38;;;8.57;;
8104;SDS011;4095;48.942;9.104;2022-07-23T08:43:57;9.65;;;8.80;;
8104;SDS011;4095;48.942;9.104;2022-07-23T08:46:25;9.52;;;8.63;;
8104;SDS011;4095;48.942;9.104;2022-07-23T08:48:52;9.60;;;8.80;;
8104;SDS011;4095;48.942;9.104;2022-07-23T08:51:19;10.23;;;9.23;;
8104;SDS011;4095;48.942;9.104;2022-07-23T08:53:45;10.35;;;9.45;;
8104;SDS011;4095;48.942;9.104;2022-07-23T08:56:12;10.00;;;9.00;;
8104;SDS011;4095;48.942;9.104;2022-07-23T08:58:38;9.98;;;8.95;;
8104;SDS011;4095;48.942;9.104;2022-07-23T09:01:04;9.50;;;8.50;;
8104;SDS011;4095;48.942;9.104;2022-07-23T09:03:30;9.02;;;8.23;;
8104;SDS011;4095;48.942;9.104;2022-07-23T09:05:58;8.23;;;7.53;;
8104;SDS011;4095;48.942;9.104;2022-07-23T09:08:25;7.60;;;6.82;;
8104;SDS011;4095;48.942;9.104;2022-07-23T09:10:59;7.03;;;6.43;;
8104;SDS011;4095;48.942;9.104;2022-07-23T09:15:57;7.43;;;6.72;;
8104;SDS011;4095;48.942;9.104;2022-07-23T09:18:46;6.15;;;5.60;;
8104;SDS011;4095;48.942;9.104;2022-07-23T09:21:19;6.25;;;5.72;;
8104;SDS011;4095;48.942;9.104;2022-07-23T09:31:30;6.43;;;5.82;;
8104;SDS011;4095;48.942;9.104;2022-07-23T09:34:15;5.85;;;5.10;;
8104;SDS011;4095;48.942;9.104;2022-07-23T09:36:49;6.18;;;5.57;;
8104;SDS011;4095;48.942;9.104;2022-07-23T09:39:32;5.78;;;5.28;;
8104;SDS011;4095;48.942;9.104;2022-07-23T09:44:45;5.35;;;4.80;;
8104;SDS011;4095;48.942;9.104;2022-07-23T09:47:15;6.85;;;6.15;;
8104;SDS011;4095;48.942;9.104;2022-07-23T09:49:43;6.90;;;6.20;;
8104;SDS011;4095;48.942;9.104;2022-07-23T09:52:33;6.47;;;5.80;;
8104;SDS011;4095;48.942;9.104;2022-07-23T09:55:00;6.55;;;5.95;;
8104;SDS011;4095;48.942;9.104;2022-07-23T09:57:28;6.70;;;6.00;;
8104;SDS011;4095;48.942;9.104;2022-07-23T09:59:56;5.60;;;5.05;;
8104;SDS011;4095;48.942;9.104;2022-07-23T10:02:24;5.95;;;5.35;;
8104;SDS011;4095;48.942;9.104;2022-07-23T10:04:52;7.63;;;5.45;;
8104;SDS011;4095;48.942;9.104;2022-07-23T10:07:20;6.80;;;6.20;;
8104;SDS011;4095;48.942;9.104;2022-07-23T10:09:48;6.65;;;5.90;;
8104;SDS011;4095;48.942;9.104;2022-07-23T10:12:17;6.30;;;5.72;;
8104;SDS011;4095;48.942;9.104;2022-07-23T10:15:04;6.35;;;5.75;;
8104;SDS011;4095;48.942;9.104;2022-07-23T10:17:34;5.65;;;5.05;;
8104;SDS011;4095;48.942;9.104;2022-07-23T10:20:00;5.65;;;5.10;;
8104;SDS011;4095;48.942;9.104;2022-07-23T10:22:46;5.95;;;4.97;;
8104;SDS011;4095;48.942;9.104;2022-07-23T10:25:31;5.80;;;5.30;;
8104;SDS011;4095;48.942;9.104;2022-07-23T10:31:10;5.57;;;4.70;;
8104;SDS011;4095;48.942;9.104;2022-07-23T10:36:32;5.07;;;4.68;;
8104;SDS011;4095;48.942;9.104;2022-07-23T10:41:44;4.80;;;4.40;;
8104;SDS011;4095;48.942;9.104;2022-07-23T10:44:17;4.90;;;4.50;;
8104;SDS011;4095;48.942;9.104;2022-07-23T10:46:58;4.22;;;3.83;;
8104;SDS011;4095;48.942;9.104;2022-07-23T10:49:44;4.68;;;4.28;;
8104;SDS011;4095;48.942;9.104;2022-07-23T10:54:42;4.72;;;4.18;;
8104;SDS011;4095;48.942;9.104;2022-07-23T10:57:08;4.57;;;4.07;;
8104;SDS011;4095;48.942;9.104;2022-07-23T11:02:45;4.32;;;3.92;;
8104;SDS011;4095;48.942;9.104;2022-07-23T11:05:16;4.10;;;3.75;;
8104;SDS011;4095;48.942;9.104;2022-07-23T11:16:03;4.45;;;3.80;;
8104;SDS011;4095;48.942;9.104;2022-07-23T11:19:13;4.50;;;4.10;;
8104;SDS011;4095;48.942;9.104;2022-07-23T11:31:53;4.68;;;4.28;;
8104;SDS011;4095;48.942;9.104;2022-07-23T11:34:33;4.97;;;4.18;;
8104;SDS011;4095;48.942;9.104;2022-07-23T11:36:59;5.03;;;4.53;;
8104;SDS011;4095;48.942;9.104;2022-07-23T11:39:26;5.32;;;4.82;;
8104;SDS011;4095;48.942;9.104;2022-07-23T11:41:53;4.43;;;4.03;;
8104;SDS011;4095;48.942;9.104;2022-07-23T11:44:26;5.20;;;4.75;;
8104;SDS011;4095;48.942;9.104;2022-07-23T11:47:07;4.82;;;4.32;;
8104;SDS011;4095;48.942;9.104;2022-07-23T11:49:34;4.75;;;4.35;;
8104;SDS011;4095;48.942;9.104;2022-07-23T11:54:33;4.45;;;3.88;;
8104;SDS011;4095;48.942;9.104;2022-07-23T11:57:00;6.00;;;4.43;;
8104;SDS011;4095;48.942;9.104;2022-07-23T11:59:28;4.50;;;4.10;;
8104;SDS011;4095;48.942;9.104;2022-07-23T12:02:01;4.53;;;4.15;;
8104;SDS011;4095;48.942;9.104;2022-07-23T12:04:45;5.32;;;4.63;;
8104;SDS011;4095;48.942;9.104;2022-07-23T12:09:58;5.95;;;4.68;;
8104;SDS011;4095;48.942;9.104;2022-07-23T12:12:38;5.00;;;4.60;;
8104;SDS011;4095;48.942;9.104;2022-07-23T12:15:09;4.93;;;4.40;;
8104;SDS011;4095;48.942;9.104;2022-07-23T12:17:38;4.78;;;4.38;;
8104;SDS011;4095;48.942;9.104;2022-07-23T12:20:05;4.53;;;4.07;;
8104;SDS011;4095;48.942;9.104;2022-07-23T12:22:38;4.72;;;4.20;;
8104;SDS011;4095;48.942;9.104;2022-07-23T12:25:10;4.95;;;4.55;;
8104;SDS011;4095;48.942;9.104;2022-07-23T12:27:46;5.05;;;4.60;;
8104;SDS011;4095;48.942;9.104;2022-07-23T12:30:32;5.95;;;4.65;;
8104;SDS011;4095;48.942;9.104;2022-07-23T12:33:02;5.45;;;4.95;;
8104;SDS011;4095;48.942;9.104;2022-07-23T12:35:50;5.97;;;4.57;;
8104;SDS011;4095;48.942;9.104;2022-07-23T12:38:16;5.30;;;4.80;;
8104;SDS011;4095;48.942;9.104;2022-07-23T12:40:45;5.70;;;4.68;;
8104;SDS011;4095;48.942;9.104;2022-07-23T12:43:27;5.85;;;4.70;;
8104;SDS011;4095;48.942;9.104;2022-07-23T12:46:07;5.15;;;4.75;;
8104;SDS011;4095;48.942;9.104;2022-07-23T12:48:50;4.93;;;4.53;;
8104;SDS011;4095;48.942;9.104;2022-07-23T12:53:58;5.53;;;5.03;;
8104;SDS011;4095;48.942;9.104;2022-07-23T12:56:29;5.95;;;5.45;;
8104;SDS011;4095;48.942;9.104;2022-07-23T13:01:39;7.40;;;5.40;;
8104;SDS011;4095;48.942;9.104;2022-07-23T13:04:09;5.45;;;5.03;;
8104;SDS011;4095;48.942;9.104;2022-07-23T13:09:09;6.30;;;5.38;;
8104;SDS011;4095;48.942;9.104;2022-07-23T13:11:37;6.07;;;5.57;;
8104;SDS011;4095;48.942;9.104;2022-07-23T13:14:04;5.63;;;5.13;;
8104;SDS011;4095;48.942;9.104;2022-07-23T13:16:30;5.43;;;5.00;;
8104;SDS011;4095;48.942;9.104;2022-07-23T13:18:57;5.43;;;4.93;;
8104;SDS011;4095;48.942;9.104;2022-07-23T13:21:24;5.72;;;5.22;;
8104;SDS011;4095;48.942;9.104;2022-07-23T13:23:50;5.68;;;5.15;;
8104;SDS011;4095;48.942;9.104;2022-07-23T13:26:16;5.45;;;4.95;;
8104;SDS011;4095;48.942;9.104;2022-07-23T13:28:42;5.25;;;4.75;;
8104;SDS011;4095;48.942;9.104;2022-07-23T13:31:08;5.45;;;4.95;;
8104;SDS011;4095;48.942;9.104;2022-07-23T13:33:33;6.65;;;5.00;;
8104;SDS011;4095;48.942;9.104;2022-07-23T13:36:00;4.75;;;4.35;;
8104;SDS011;4095;48.942;9.104;2022-07-23T13:38:25;5.40;;;4.90;;
8104;SDS011;4095;48.942;9.104;2022-07-23T13:40:51;5.10;;;4.60;;
8104;SDS011;4095;48.942;9.104;2022-07-23T13:43:19;4.93;;;4.50;;
8104;SDS011;4095;48.942;9.104;2022-07-23T13:45:46;5.00;;;4.50;;
8104;SDS011;4095;48.942;9.104;2022-07-23T13:48:12;4.78;;;4.38;;
8104;SDS011;4095;48.942;9.104;2022-07-23T13:50:39;5.38;;;4.88;;
8104;SDS011;4095;48.942;9.104;2022-07-23T13:53:07;5.80;;;4.95;;
8104;SDS011;4095;48.942;9.104;2022-07-23T13:55:35;5.30;;;4.80;;
8104;SDS011;4095;48.942;9.104;2022-07-23T13:58:02;5.50;;;5.00;;
8104;SDS011;4095;48.942;9.104;2022-07-23T14:00:29;5.57;;;5.10;;
8104;SDS011;4095;48.942;9.104;2022-07-23T14:02:55;5.10;;;4.60;;
8104;SDS011;4095;48.942;9.104;2022-07-23T14:05:22;5.75;;;4.90;;
8104;SDS011;4095;48.942;9.104;2022-07-23T14:07:47;5.90;;;4.85;;
8104;SDS011;4095;48.942;9.104;2022-07-23T14:10:15;5.70;;;5.20;;
8104;SDS011;4095;48.942;9.104;2022-07-23T14:12:42;5.63;;;5.13;;
8104;SDS011;4095;48.942;9.104;2022-07-23T14:15:08;5.32;;;4.93;;
8104;SDS011;4095;48.942;9.104;2022-07-23T14:17:38;5.53;;;5.03;;
8104;SDS011;4095;48.942;9.104;2022-07-23T14:20:06;5.45;;;4.85;;
8104;SDS011;4095;48.942;9.104;2022-07-23T14:22:32;5.63;;;5.05;;
8104;SDS011;4095;48.942;9.104;2022-07-23T14:24:58;5.57;;;5.03;;
8104;SDS011;4095;48.942;9.104;2022-07-23T14:27:25;5.93;;;5.43;;
8104;SDS011;4095;48.942;9.104;2022-07-23T14:29:52;6.00;;;5.40;;
8104;SDS011;4095;48.942;9.104;2022-07-23T14:32:18;5.93;;;5.32;;
8104;SDS011;4095;48.942;9.104;2022-07-23T14:34:44;5.50;;;5.00;;
8104;SDS011;4095;48.942;9.104;2022-07-23T14:37:10;6.13;;;5.38;;
8104;SDS011;4095;48.942;9.104;2022-07-23T14:39:37;5.30;;;4.80;;
8104;SDS011;4095;48.942;9.104;2022-07-23T14:42:06;6.07;;;5.57;;
8104;SDS011;4095;48.942;9.104;2022-07-23T14:44:32;6.03;;;5.43;;
8104;SDS011;4095;48.942;9.104;2022-07-23T14:46:58;5.82;;;5.32;;
8104;SDS011;4095;48.942;9.104;2022-07-23T14:49:25;6.15;;;5.53;;
8104;SDS011;4095;48.942;9.104;2022-07-23T14:51:51;7.97;;;5.40;;
8104;SDS011;4095;48.942;9.104;2022-07-23T14:54:16;6.45;;;5.40;;
8104;SDS011;4095;48.942;9.104;2022-07-23T14:56:42;5.50;;;5.00;;
8104;SDS011;4095;48.942;9.104;2022-07-23T14:59:08;6.00;;;5.40;;
8104;SDS011;4095;48.942;9.104;2022-07-23T15:01:34;5.68;;;5.18;;
8104;SDS011;4095;48.942;9.104;2022-07-23T15:03:59;6.22;;;5.65;;
8104;SDS011;4095;48.942;9.104;2022-07-23T15:06:25;6.20;;;5.60;;
8104;SDS011;4095;48.942;9.104;2022-07-23T15:08:51;6.03;;;5.43;;
8104;SDS011;4095;48.942;9.104;2022-07-23T15:11:17;5.68;;;5.15;;
8104;SDS011;4095;48.942;9.104;2022-07-23T15:13:42;5.68;;;5.18;;
8104;SDS011;4095;48.942;9.104;2022-07-23T15:16:08;6.38;;;5.72;;
8104;SDS011;4095;48.942;9.104;2022-07-23T15:18:34;5.95;;;5.35;;
8104;SDS011;4095;48.942;9.104;2022-07-23T15:21:00;5.80;;;5.30;;
8104;SDS011;4095;48.942;9.104;2022-07-23T15:23:27;5.68;;;5.13;;
8104;SDS011;4095;48.942;9.104;2022-07-23T15:25:54;6.03;;;5.43;;
8104;SDS011;4095;48.942;9.104;2022-07-23T15:28:21;5.88;;;5.28;;
8104;SDS011;4095;48.942;9.104;2022-07-23T15:30:47;5.70;;;5.20;;
8104;SDS011;4095;48.942;9.104;2022-07-23T15:33:14;5.13;;;4.68;;
8104;SDS011;4095;48.942;9.104;2022-07-23T15:35:39;6.28;;;5.00;;
8104;SDS011;4095;48.942;9.104;2022-07-23T15:38:05;5.55;;;5.07;;
8104;SDS011;4095;48.942;9.104;2022-07-23T15:40:31;5.57;;;5.07;;
8104;SDS011;4095;48.942;9.104;2022-07-23T15:42:57;7.68;;;5.25;;
8104;SDS011;4095;48.942;9.104;2022-07-23T15:45:22;5.25;;;4.85;;
8104;SDS011;4095;48.942;9.104;2022-07-23T15:47:48;5.80;;;5.30;;
8104;SDS011;4095;48.942;9.104;2022-07-23T15:50:14;5.70;;;5.20;;
8104;SDS011;4095;48.942;9.104;2022-07-23T15:52:40;5.70;;;5.20;;
8104;SDS011;4095;48.942;9.104;2022-07-23T15:55:06;6.03;;;5.45;;
8104;SDS011;4095;48.942;9.104;2022-07-23T15:57:32;13.52;;;12.32;;
8104;SDS011;4095;48.942;9.104;2022-07-23T15:59:58;6.93;;;6.22;;
8104;SDS011;4095;48.942;9.104;2022-07-23T16:02:24;5.72;;;5.22;;
8104;SDS011;4095;48.942;9.104;2022-07-23T16:04:50;6.78;;;6.05;;
8104;SDS011;4095;48.942;9.104;2022-07-23T16:07:17;6.80;;;6.20;;
8104;SDS011;4095;48.942;9.104;2022-07-23T16:09:44;7.22;;;6.13;;
8104;SDS011;4095;48.942;9.104;2022-07-23T16:12:09;6.38;;;5.88;;
8104;SDS011;4095;48.942;9.104;2022-07-23T16:14:35;6.90;;;6.30;;
8104;SDS011;4095;48.942;9.104;2022-07-23T16:17:02;6.40;;;5.90;;